sensor_id;sensor_type;location;lat;lon;timestamp;P1;durP1;ratioP1;P2;durP2;ratioP2
77430;SDS011;66498;48.564;19.272;2023-04-29T00:00:01;29.25;;;19.95;;
77430;SDS011;66498;48.564;19.272;2023-04-29T00:02:29;22.48;;;16.52;;
77430;SDS011;66498;48.564;19.272;2023-04-29T00:04:55;28.52;;;17.08;;
77430;SDS011;66498;48.564;19.272;2023-04-29T00:07:20;27.63;;;18.17;;
77430;SDS011;66498;48.564;19.272;2023-04-29T00:09:46;27.13;;;20.13;;
77430;SDS011;66498;48.564;19.272;2023-04-29T00:12:11;26.23;;;19.42;;
77430;SDS011;66498;48.564;19.272;2023-04-29T00:14:37;27.23;;;20.10;;
77430;SDS011;66498;48.564;19.272;2023-04-29T00:17:02;25.88;;;18.83;;
77430;SDS011;66498;48.564;19.272;2023-04-29T00:19:28;24.10;;;19.23;;
77430;SDS011;66498;48.564;19.272;2023-04-29T00:21:54;26.40;;;19.58;;
77430;SDS011;66498;48.564;19.272;2023-04-29T00:24:19;35.58;;;22.73;;
77430;SDS011;66498;48.564;19.272;2023-04-29T00:26:45;30.02;;;19.65;;
77430;SDS011;66498;48.564;19.272;2023-04-29T00:29:10;30.58;;;18.67;;
77430;SDS011;66498;48.564;19.272;2023-04-29T00:31:36;26.92;;;18.80;;
77430;SDS011;66498;48.564;19.272;2023-04-29T00:34:02;26.63;;;19.02;;
77430;SDS011;66498;48.564;19.272;2023-04-29T00:36:27;25.10;;;18.75;;
77430;SDS011;66498;48.564;19.272;2023-04-29T00:38:53;24.92;;;18.75;;
77430;SDS011;66498;48.564;19.272;2023-04-29T00:41:19;25.27;;;19.30;;
77430;SDS011;66498;48.564;19.272;2023-04-29T00:43:45;26.10;;;18.88;;
77430;SDS011;66498;48.564;19.272;2023-04-29T00:46:10;25.80;;;17.50;;
77430;SDS011;66498;48.564;19.272;2023-04-29T00:48:36;23.85;;;18.38;;
77430;SDS011;66498;48.564;19.272;2023-04-29T00:51:02;27.27;;;19.38;;
77430;SDS011;66498;48.564;19.272;2023-04-29T00:53:29;25.63;;;18.35;;
77430;SDS011;66498;48.564;19.272;2023-04-29T00:55:55;28.92;;;19.40;;
77430;SDS011;66498;48.564;19.272;2023-04-29T00:58:21;26.65;;;18.63;;
77430;SDS011;66498;48.564;19.272;2023-04-29T01:00:48;35.40;;;19.77;;
77430;SDS011;66498;48.564;19.272;2023-04-29T01:03:16;29.58;;;19.48;;
77430;SDS011;66498;48.564;19.272;2023-04-29T01:05:44;26.48;;;19.63;;
77430;SDS011;66498;48.564;19.272;2023-04-29T01:10:53;26.65;;;19.38;;
77430;SDS011;66498;48.564;19.272;2023-04-29T01:13:29;28.23;;;19.88;;
77430;SDS011;66498;48.564;19.272;2023-04-29T01:21:07;26.85;;;19.38;;
77430;SDS011;66498;48.564;19.272;2023-04-29T01:23:33;27.05;;;20.13;;
77430;SDS011;66498;48.564;19.272;2023-04-29T01:25:59;29.40;;;21.05;;
77430;SDS011;66498;48.564;19.272;2023-04-29T01:28:28;28.98;;;19.92;;
77430;SDS011;66498;48.564;19.272;2023-04-29T01:31:06;29.85;;;19.60;;
77430;SDS011;66498;48.564;19.272;2023-04-29T01:36:13;28.45;;;19.55;;
77430;SDS011;66498;48.564;19.272;2023-04-29T01:44:21;26.42;;;19.30;;
77430;SDS011;66498;48.564;19.272;2023-04-29T01:46:51;26.92;;;18.67;;
77430;SDS011;66498;48.564;19.272;2023-04-29T01:49:24;26.02;;;19.17;;
77430;SDS011;66498;48.564;19.272;2023-04-29T01:51:50;27.40;;;18.60;;
77430;SDS011;66498;48.564;19.272;2023-04-29T01:54:15;25.35;;;18.30;;
77430;SDS011;66498;48.564;19.272;2023-04-29T01:56:41;25.38;;;17.83;;
77430;SDS011;66498;48.564;19.272;2023-04-29T01:59:08;25.98;;;17.65;;
77430;SDS011;66498;48.564;19.272;2023-04-29T02:01:33;29.92;;;17.75;;
77430;SDS011;66498;48.564;19.272;2023-04-29T02:03:58;24.45;;;17.13;;
77430;SDS011;66498;48.564;19.272;2023-04-29T02:06:24;23.45;;;17.30;;
77430;SDS011;66498;48.564;19.272;2023-04-29T02:08:50;25.85;;;16.75;;
77430;SDS011;66498;48.564;19.272;2023-04-29T02:11:16;20.75;;;16.58;;
77430;SDS011;66498;48.564;19.272;2023-04-29T02:13:41;25.58;;;17.98;;
77430;SDS011;66498;48.564;19.272;2023-04-29T02:16:10;27.30;;;18.15;;
77430;SDS011;66498;48.564;19.272;2023-04-29T02:18:37;25.90;;;18.13;;
77430;SDS011;66498;48.564;19.272;2023-04-29T02:21:03;27.30;;;17.85;;
77430;SDS011;66498;48.564;19.272;2023-04-29T02:23:28;25.92;;;16.83;;
77430;SDS011;66498;48.564;19.272;2023-04-29T02:25:55;24.58;;;16.40;;
77430;SDS011;66498;48.564;19.272;2023-04-29T02:28:20;24.27;;;18.17;;
77430;SDS011;66498;48.564;19.272;2023-04-29T02:30:47;26.92;;;18.58;;
77430;SDS011;66498;48.564;19.272;2023-04-29T02:33:13;27.58;;;17.30;;
77430;SDS011;66498;48.564;19.272;2023-04-29T02:35:39;23.88;;;17.33;;
77430;SDS011;66498;48.564;19.272;2023-04-29T02:38:04;26.17;;;18.52;;
77430;SDS011;66498;48.564;19.272;2023-04-29T02:40:30;28.95;;;18.27;;
77430;SDS011;66498;48.564;19.272;2023-04-29T02:42:56;24.92;;;19.08;;
77430;SDS011;66498;48.564;19.272;2023-04-29T02:45:21;26.80;;;19.65;;
77430;SDS011;66498;48.564;19.272;2023-04-29T02:47:47;28.13;;;18.85;;
77430;SDS011;66498;48.564;19.272;2023-04-29T02:50:12;26.27;;;18.20;;
77430;SDS011;66498;48.564;19.272;2023-04-29T02:52:38;28.65;;;19.52;;
77430;SDS011;66498;48.564;19.272;2023-04-29T02:55:05;28.83;;;20.25;;
77430;SDS011;66498;48.564;19.272;2023-04-29T02:57:31;31.30;;;19.80;;
77430;SDS011;66498;48.564;19.272;2023-04-29T02:59:58;27.20;;;19.52;;
77430;SDS011;66498;48.564;19.272;2023-04-29T03:02:23;29.23;;;20.40;;
77430;SDS011;66498;48.564;19.272;2023-04-29T03:04:49;26.90;;;19.27;;
77430;SDS011;66498;48.564;19.272;2023-04-29T03:07:14;25.92;;;18.80;;
77430;SDS011;66498;48.564;19.272;2023-04-29T03:09:41;24.27;;;19.05;;
77430;SDS011;66498;48.564;19.272;2023-04-29T03:12:07;26.13;;;19.02;;
77430;SDS011;66498;48.564;19.272;2023-04-29T03:14:32;25.33;;;18.65;;
77430;SDS011;66498;48.564;19.272;2023-04-29T03:16:58;25.85;;;19.38;;
77430;SDS011;66498;48.564;19.272;2023-04-29T03:19:23;29.35;;;19.38;;
77430;SDS011;66498;48.564;19.272;2023-04-29T03:21:50;35.92;;;20.33;;
77430;SDS011;66498;48.564;19.272;2023-04-29T03:24:15;28.17;;;19.88;;
77430;SDS011;66498;48.564;19.272;2023-04-29T03:26:41;26.08;;;19.10;;
77430;SDS011;66498;48.564;19.272;2023-04-29T03:29:09;26.42;;;19.13;;
77430;SDS011;66498;48.564;19.272;2023-04-29T03:31:34;26.27;;;18.90;;
77430;SDS011;66498;48.564;19.272;2023-04-29T03:34:00;24.50;;;17.85;;
77430;SDS011;66498;48.564;19.272;2023-04-29T03:36:25;26.13;;;19.15;;
77430;SDS011;66498;48.564;19.272;2023-04-29T03:38:51;24.65;;;19.38;;
77430;SDS011;66498;48.564;19.272;2023-04-29T03:41:17;26.35;;;19.05;;
77430;SDS011;66498;48.564;19.272;2023-04-29T03:43:42;23.70;;;18.13;;
77430;SDS011;66498;48.564;19.272;2023-04-29T03:46:08;27.77;;;18.98;;
77430;SDS011;66498;48.564;19.272;2023-04-29T03:48:34;28.45;;;20.48;;
77430;SDS011;66498;48.564;19.272;2023-04-29T03:51:00;27.45;;;19.65;;
77430;SDS011;66498;48.564;19.272;2023-04-29T03:53:26;26.02;;;17.83;;
77430;SDS011;66498;48.564;19.272;2023-04-29T03:55:52;22.45;;;17.65;;
77430;SDS011;66498;48.564;19.272;2023-04-29T03:58:17;21.70;;;17.05;;
77430;SDS011;66498;48.564;19.272;2023-04-29T04:00:43;23.20;;;16.30;;
77430;SDS011;66498;48.564;19.272;2023-04-29T04:03:08;26.13;;;17.17;;
77430;SDS011;66498;48.564;19.272;2023-04-29T04:05:33;22.38;;;15.75;;
77430;SDS011;66498;48.564;19.272;2023-04-29T04:07:59;25.60;;;15.77;;
77430;SDS011;66498;48.564;19.272;2023-04-29T04:10:24;21.60;;;15.45;;
77430;SDS011;66498;48.564;19.272;2023-04-29T04:12:50;20.48;;;15.35;;
77430;SDS011;66498;48.564;19.272;2023-04-29T04:15:15;21.25;;;14.95;;
77430;SDS011;66498;48.564;19.272;2023-04-29T04:17:41;19.92;;;16.05;;
77430;SDS011;66498;48.564;19.272;2023-04-29T04:20:07;28.90;;;17.60;;
77430;SDS011;66498;48.564;19.272;2023-04-29T04:22:33;22.42;;;16.05;;
77430;SDS011;66498;48.564;19.272;2023-04-29T04:24:58;21.70;;;15.73;;
77430;SDS011;66498;48.564;19.272;2023-04-29T04:27:23;23.40;;;16.52;;
77430;SDS011;66498;48.564;19.272;2023-04-29T04:29:52;25.27;;;16.67;;
77430;SDS011;66498;48.564;19.272;2023-04-29T04:32:18;26.42;;;17.40;;
77430;SDS011;66498;48.564;19.272;2023-04-29T04:34:45;24.45;;;16.80;;
77430;SDS011;66498;48.564;19.272;2023-04-29T04:37:12;24.75;;;18.95;;
77430;SDS011;66498;48.564;19.272;2023-04-29T04:39:38;27.40;;;20.10;;
77430;SDS011;66498;48.564;19.272;2023-04-29T04:42:06;26.83;;;17.88;;
77430;SDS011;66498;48.564;19.272;2023-04-29T04:44:31;25.13;;;17.55;;
77430;SDS011;66498;48.564;19.272;2023-04-29T04:46:57;23.20;;;17.40;;
77430;SDS011;66498;48.564;19.272;2023-04-29T04:49:25;23.83;;;17.10;;
77430;SDS011;66498;48.564;19.272;2023-04-29T04:51:51;26.10;;;17.73;;
77430;SDS011;66498;48.564;19.272;2023-04-29T04:54:17;26.02;;;18.52;;
77430;SDS011;66498;48.564;19.272;2023-04-29T04:56:45;24.27;;;17.90;;
77430;SDS011;66498;48.564;19.272;2023-04-29T04:59:12;22.77;;;15.98;;
77430;SDS011;66498;48.564;19.272;2023-04-29T05:01:38;22.13;;;16.77;;
77430;SDS011;66498;48.564;19.272;2023-04-29T05:04:03;19.95;;;15.10;;
77430;SDS011;66498;48.564;19.272;2023-04-29T05:06:29;19.48;;;14.50;;
77430;SDS011;66498;48.564;19.272;2023-04-29T05:08:55;20.48;;;15.25;;
77430;SDS011;66498;48.564;19.272;2023-04-29T05:11:21;19.38;;;15.75;;
77430;SDS011;66498;48.564;19.272;2023-04-29T05:13:46;22.83;;;17.10;;
77430;SDS011;66498;48.564;19.272;2023-04-29T05:16:13;25.95;;;17.27;;
77430;SDS011;66498;48.564;19.272;2023-04-29T05:18:38;23.58;;;17.13;;
77430;SDS011;66498;48.564;19.272;2023-04-29T05:21:04;23.20;;;17.10;;
77430;SDS011;66498;48.564;19.272;2023-04-29T05:23:30;26.05;;;19.27;;
77430;SDS011;66498;48.564;19.272;2023-04-29T05:25:56;29.15;;;20.80;;
77430;SDS011;66498;48.564;19.272;2023-04-29T05:28:22;29.77;;;20.00;;
77430;SDS011;66498;48.564;19.272;2023-04-29T05:30:50;30.98;;;21.00;;
77430;SDS011;66498;48.564;19.272;2023-04-29T05:33:16;29.88;;;20.98;;
77430;SDS011;66498;48.564;19.272;2023-04-29T05:35:42;34.42;;;23.98;;
77430;SDS011;66498;48.564;19.272;2023-04-29T05:38:07;30.88;;;21.88;;
77430;SDS011;66498;48.564;19.272;2023-04-29T05:40:34;28.63;;;21.50;;
77430;SDS011;66498;48.564;19.272;2023-04-29T05:43:00;27.42;;;19.73;;
77430;SDS011;66498;48.564;19.272;2023-04-29T05:45:26;25.25;;;19.33;;
77430;SDS011;66498;48.564;19.272;2023-04-29T05:47:51;26.92;;;18.75;;
77430;SDS011;66498;48.564;19.272;2023-04-29T05:50:17;24.90;;;19.33;;
77430;SDS011;66498;48.564;19.272;2023-04-29T05:52:43;22.00;;;17.83;;
77430;SDS011;66498;48.564;19.272;2023-04-29T05:55:09;24.52;;;20.08;;
77430;SDS011;66498;48.564;19.272;2023-04-29T05:57:34;25.58;;;20.38;;
77430;SDS011;66498;48.564;19.272;2023-04-29T06:00:00;25.65;;;19.17;;
77430;SDS011;66498;48.564;19.272;2023-04-29T06:02:26;24.05;;;18.63;;
77430;SDS011;66498;48.564;19.272;2023-04-29T06:04:51;22.42;;;17.98;;
77430;SDS011;66498;48.564;19.272;2023-04-29T06:07:17;24.35;;;18.90;;
77430;SDS011;66498;48.564;19.272;2023-04-29T06:09:43;24.83;;;18.80;;
77430;SDS011;66498;48.564;19.272;2023-04-29T06:12:09;27.48;;;20.50;;
77430;SDS011;66498;48.564;19.272;2023-04-29T06:14:35;28.92;;;21.50;;
77430;SDS011;66498;48.564;19.272;2023-04-29T06:17:01;36.10;;;28.73;;
77430;SDS011;66498;48.564;19.272;2023-04-29T06:19:28;27.15;;;21.65;;
77430;SDS011;66498;48.564;19.272;2023-04-29T06:22:05;26.10;;;21.58;;
77430;SDS011;66498;48.564;19.272;2023-04-29T06:24:32;26.27;;;20.33;;
77430;SDS011;66498;48.564;19.272;2023-04-29T06:27:21;24.58;;;19.92;;
77430;SDS011;66498;48.564;19.272;2023-04-29T06:29:47;32.35;;;26.25;;
77430;SDS011;66498;48.564;19.272;2023-04-29T06:32:13;23.40;;;18.15;;
77430;SDS011;66498;48.564;19.272;2023-04-29T06:34:39;24.33;;;17.30;;
77430;SDS011;66498;48.564;19.272;2023-04-29T06:37:05;25.30;;;17.92;;
77430;SDS011;66498;48.564;19.272;2023-04-29T06:39:31;21.30;;;16.65;;
77430;SDS011;66498;48.564;19.272;2023-04-29T06:41:57;22.92;;;17.23;;
77430;SDS011;66498;48.564;19.272;2023-04-29T06:44:23;21.67;;;18.15;;
77430;SDS011;66498;48.564;19.272;2023-04-29T06:46:48;22.88;;;16.63;;
77430;SDS011;66498;48.564;19.272;2023-04-29T06:49:14;21.83;;;17.08;;
77430;SDS011;66498;48.564;19.272;2023-04-29T06:51:40;20.15;;;15.45;;
77430;SDS011;66498;48.564;19.272;2023-04-29T06:54:07;18.90;;;14.55;;
77430;SDS011;66498;48.564;19.272;2023-04-29T06:56:32;20.60;;;14.18;;
77430;SDS011;66498;48.564;19.272;2023-04-29T06:58:58;19.05;;;13.45;;
77430;SDS011;66498;48.564;19.272;2023-04-29T07:01:23;14.77;;;11.95;;
77430;SDS011;66498;48.564;19.272;2023-04-29T07:03:49;17.02;;;12.63;;
77430;SDS011;66498;48.564;19.272;2023-04-29T07:06:15;14.52;;;10.57;;
77430;SDS011;66498;48.564;19.272;2023-04-29T07:08:41;14.20;;;10.93;;
77430;SDS011;66498;48.564;19.272;2023-04-29T07:11:06;14.50;;;11.55;;
77430;SDS011;66498;48.564;19.272;2023-04-29T07:13:32;16.58;;;11.05;;
77430;SDS011;66498;48.564;19.272;2023-04-29T07:15:58;13.50;;;10.50;;
77430;SDS011;66498;48.564;19.272;2023-04-29T07:18:24;15.98;;;10.52;;
77430;SDS011;66498;48.564;19.272;2023-04-29T07:20:50;16.67;;;10.35;;
77430;SDS011;66498;48.564;19.272;2023-04-29T07:23:16;16.50;;;11.52;;
77430;SDS011;66498;48.564;19.272;2023-04-29T07:25:42;15.23;;;10.00;;
77430;SDS011;66498;48.564;19.272;2023-04-29T07:28:07;15.63;;;10.32;;
77430;SDS011;66498;48.564;19.272;2023-04-29T07:30:33;13.90;;;10.57;;
77430;SDS011;66498;48.564;19.272;2023-04-29T07:32:59;12.48;;;10.55;;
77430;SDS011;66498;48.564;19.272;2023-04-29T07:35:25;15.43;;;9.57;;
77430;SDS011;66498;48.564;19.272;2023-04-29T07:37:51;14.35;;;10.32;;
77430;SDS011;66498;48.564;19.272;2023-04-29T07:40:17;15.70;;;10.02;;
77430;SDS011;66498;48.564;19.272;2023-04-29T07:42:42;13.93;;;10.50;;
77430;SDS011;66498;48.564;19.272;2023-04-29T07:45:08;13.73;;;9.77;;
77430;SDS011;66498;48.564;19.272;2023-04-29T07:47:34;12.48;;;8.85;;
77430;SDS011;66498;48.564;19.272;2023-04-29T07:50:00;12.63;;;9.50;;
77430;SDS011;66498;48.564;19.272;2023-04-29T07:52:26;13.05;;;9.07;;
77430;SDS011;66498;48.564;19.272;2023-04-29T07:54:52;17.10;;;10.02;;
77430;SDS011;66498;48.564;19.272;2023-04-29T07:57:20;14.70;;;9.90;;
77430;SDS011;66498;48.564;19.272;2023-04-29T07:59:46;14.05;;;10.48;;
77430;SDS011;66498;48.564;19.272;2023-04-29T08:02:17;12.88;;;10.40;;
77430;SDS011;66498;48.564;19.272;2023-04-29T08:04:43;12.90;;;10.20;;
77430;SDS011;66498;48.564;19.272;2023-04-29T08:07:09;13.88;;;9.18;;
77430;SDS011;66498;48.564;19.272;2023-04-29T08:09:34;11.10;;;9.02;;
77430;SDS011;66498;48.564;19.272;2023-04-29T08:12:10;18.67;;;12.10;;
77430;SDS011;66498;48.564;19.272;2023-04-29T08:15:35;14.15;;;9.95;;
77430;SDS011;66498;48.564;19.272;2023-04-29T08:18:13;13.20;;;8.80;;
77430;SDS011;66498;48.564;19.272;2023-04-29T08:20:38;14.88;;;9.05;;
77430;SDS011;66498;48.564;19.272;2023-04-29T08:23:04;13.25;;;8.82;;
77430;SDS011;66498;48.564;19.272;2023-04-29T08:25:29;13.18;;;8.23;;
77430;SDS011;66498;48.564;19.272;2023-04-29T08:27:55;12.57;;;8.35;;
77430;SDS011;66498;48.564;19.272;2023-04-29T08:30:21;14.10;;;8.80;;
77430;SDS011;66498;48.564;19.272;2023-04-29T08:32:47;13.73;;;9.48;;
77430;SDS011;66498;48.564;19.272;2023-04-29T08:35:13;16.27;;;8.73;;
77430;SDS011;66498;48.564;19.272;2023-04-29T08:37:39;12.82;;;8.45;;
77430;SDS011;66498;48.564;19.272;2023-04-29T08:40:05;14.52;;;10.20;;
77430;SDS011;66498;48.564;19.272;2023-04-29T08:42:35;14.93;;;10.40;;
77430;SDS011;66498;48.564;19.272;2023-04-29T08:45:02;12.98;;;9.43;;
77430;SDS011;66498;48.564;19.272;2023-04-29T08:47:28;13.98;;;9.07;;
77430;SDS011;66498;48.564;19.272;2023-04-29T08:49:55;13.10;;;9.75;;
77430;SDS011;66498;48.564;19.272;2023-04-29T08:52:26;13.65;;;9.18;;
77430;SDS011;66498;48.564;19.272;2023-04-29T08:54:51;14.40;;;9.90;;
77430;SDS011;66498;48.564;19.272;2023-04-29T08:57:19;12.93;;;8.75;;
77430;SDS011;66498;48.564;19.272;2023-04-29T08:59:46;12.57;;;9.27;;
77430;SDS011;66498;48.564;19.272;2023-04-29T09:02:12;13.20;;;11.00;;
77430;SDS011;66498;48.564;19.272;2023-04-29T09:04:57;20.38;;;15.80;;
77430;SDS011;66498;48.564;19.272;2023-04-29T09:07:29;20.25;;;15.00;;
77430;SDS011;66498;48.564;19.272;2023-04-29T09:09:56;12.85;;;9.20;;
77430;SDS011;66498;48.564;19.272;2023-04-29T09:12:23;16.27;;;9.32;;
77430;SDS011;66498;48.564;19.272;2023-04-29T09:14:49;12.15;;;10.50;;
77430;SDS011;66498;48.564;19.272;2023-04-29T09:17:15;14.30;;;10.43;;
77430;SDS011;66498;48.564;19.272;2023-04-29T09:19:40;14.80;;;9.75;;
77430;SDS011;66498;48.564;19.272;2023-04-29T09:22:08;13.07;;;9.80;;
77430;SDS011;66498;48.564;19.272;2023-04-29T09:24:37;17.63;;;9.70;;
77430;SDS011;66498;48.564;19.272;2023-04-29T09:27:03;11.93;;;9.32;;
77430;SDS011;66498;48.564;19.272;2023-04-29T09:29:29;13.52;;;9.55;;
77430;SDS011;66498;48.564;19.272;2023-04-29T09:31:56;53.03;;;33.33;;
77430;SDS011;66498;48.564;19.272;2023-04-29T09:34:34;28.60;;;17.05;;
77430;SDS011;66498;48.564;19.272;2023-04-29T09:37:02;31.55;;;22.83;;
77430;SDS011;66498;48.564;19.272;2023-04-29T09:39:37;13.00;;;10.35;;
77430;SDS011;66498;48.564;19.272;2023-04-29T09:42:04;33.35;;;21.20;;
77430;SDS011;66498;48.564;19.272;2023-04-29T09:44:32;37.65;;;27.20;;
77430;SDS011;66498;48.564;19.272;2023-04-29T09:47:06;38.53;;;27.23;;
77430;SDS011;66498;48.564;19.272;2023-04-29T09:49:37;45.60;;;31.30;;
77430;SDS011;66498;48.564;19.272;2023-04-29T09:52:09;49.05;;;32.30;;
77430;SDS011;66498;48.564;19.272;2023-04-29T09:54:35;29.90;;;21.20;;
77430;SDS011;66498;48.564;19.272;2023-04-29T09:57:02;72.57;;;47.53;;
77430;SDS011;66498;48.564;19.272;2023-04-29T09:59:30;57.78;;;37.67;;
77430;SDS011;66498;48.564;19.272;2023-04-29T10:01:57;97.50;;;63.72;;
77430;SDS011;66498;48.564;19.272;2023-04-29T10:04:26;65.18;;;43.65;;
77430;SDS011;66498;48.564;19.272;2023-04-29T10:06:53;16.90;;;11.02;;
77430;SDS011;66498;48.564;19.272;2023-04-29T10:09:19;74.50;;;48.65;;
77430;SDS011;66498;48.564;19.272;2023-04-29T10:11:48;18.73;;;13.15;;
77430;SDS011;66498;48.564;19.272;2023-04-29T10:14:16;29.83;;;23.15;;
77430;SDS011;66498;48.564;19.272;2023-04-29T10:16:47;19.38;;;13.82;;
77430;SDS011;66498;48.564;19.272;2023-04-29T10:19:24;12.93;;;9.60;;
77430;SDS011;66498;48.564;19.272;2023-04-29T10:24:38;27.52;;;19.08;;
77430;SDS011;66498;48.564;19.272;2023-04-29T10:27:06;23.30;;;15.75;;
77430;SDS011;66498;48.564;19.272;2023-04-29T10:29:36;16.67;;;12.50;;
77430;SDS011;66498;48.564;19.272;2023-04-29T10:32:03;21.33;;;16.73;;
77430;SDS011;66498;48.564;19.272;2023-04-29T10:34:31;14.55;;;11.27;;
77430;SDS011;66498;48.564;19.272;2023-04-29T10:36:59;13.88;;;9.50;;
77430;SDS011;66498;48.564;19.272;2023-04-29T10:39:47;16.83;;;12.75;;
77430;SDS011;66498;48.564;19.272;2023-04-29T10:42:30;21.80;;;14.95;;
77430;SDS011;66498;48.564;19.272;2023-04-29T10:50:33;26.95;;;21.92;;
77430;SDS011;66498;48.564;19.272;2023-04-29T10:53:23;15.57;;;11.07;;
77430;SDS011;66498;48.564;19.272;2023-04-29T10:55:53;13.95;;;11.68;;
77430;SDS011;66498;48.564;19.272;2023-04-29T11:01:14;10.77;;;8.60;;
77430;SDS011;66498;48.564;19.272;2023-04-29T11:03:51;12.60;;;9.75;;
77430;SDS011;66498;48.564;19.272;2023-04-29T11:06:24;15.77;;;8.60;;
77430;SDS011;66498;48.564;19.272;2023-04-29T11:17:02;12.20;;;8.00;;
77430;SDS011;66498;48.564;19.272;2023-04-29T11:20:01;22.15;;;16.58;;
77430;SDS011;66498;48.564;19.272;2023-04-29T11:25:05;9.40;;;7.40;;
77430;SDS011;66498;48.564;19.272;2023-04-29T11:27:40;11.13;;;7.28;;
77430;SDS011;66498;48.564;19.272;2023-04-29T11:30:07;12.38;;;8.70;;
77430;SDS011;66498;48.564;19.272;2023-04-29T11:32:34;13.40;;;7.32;;
77430;SDS011;66498;48.564;19.272;2023-04-29T11:38:06;13.27;;;9.98;;
77430;SDS011;66498;48.564;19.272;2023-04-29T11:44:12;15.40;;;9.85;;
77430;SDS011;66498;48.564;19.272;2023-04-29T11:46:46;10.60;;;7.55;;
77430;SDS011;66498;48.564;19.272;2023-04-29T11:49:13;14.57;;;8.63;;
77430;SDS011;66498;48.564;19.272;2023-04-29T11:51:40;9.80;;;7.97;;
77430;SDS011;66498;48.564;19.272;2023-04-29T11:54:18;16.20;;;9.52;;
77430;SDS011;66498;48.564;19.272;2023-04-29T11:56:52;12.48;;;8.38;;
77430;SDS011;66498;48.564;19.272;2023-04-29T11:59:23;13.65;;;9.23;;
77430;SDS011;66498;48.564;19.272;2023-04-29T12:02:29;14.88;;;11.63;;
77430;SDS011;66498;48.564;19.272;2023-04-29T12:04:55;10.55;;;8.30;;
77430;SDS011;66498;48.564;19.272;2023-04-29T12:07:24;21.85;;;17.40;;
77430;SDS011;66498;48.564;19.272;2023-04-29T12:09:51;18.33;;;12.35;;
77430;SDS011;66498;48.564;19.272;2023-04-29T12:12:16;11.45;;;9.60;;
77430;SDS011;66498;48.564;19.272;2023-04-29T12:14:42;13.23;;;7.45;;
77430;SDS011;66498;48.564;19.272;2023-04-29T12:17:11;15.15;;;8.63;;
77430;SDS011;66498;48.564;19.272;2023-04-29T12:19:38;9.60;;;6.85;;
77430;SDS011;66498;48.564;19.272;2023-04-29T12:22:05;15.15;;;9.43;;
77430;SDS011;66498;48.564;19.272;2023-04-29T12:24:35;12.68;;;9.85;;
77430;SDS011;66498;48.564;19.272;2023-04-29T12:27:01;11.75;;;8.50;;
77430;SDS011;66498;48.564;19.272;2023-04-29T12:29:30;9.07;;;7.97;;
77430;SDS011;66498;48.564;19.272;2023-04-29T12:31:56;12.35;;;9.00;;
77430;SDS011;66498;48.564;19.272;2023-04-29T12:34:28;14.70;;;9.73;;
77430;SDS011;66498;48.564;19.272;2023-04-29T12:37:00;12.00;;;8.70;;
77430;SDS011;66498;48.564;19.272;2023-04-29T12:39:26;17.60;;;13.35;;
77430;SDS011;66498;48.564;19.272;2023-04-29T12:41:54;11.48;;;8.98;;
77430;SDS011;66498;48.564;19.272;2023-04-29T12:44:23;16.98;;;10.05;;
77430;SDS011;66498;48.564;19.272;2023-04-29T12:47:05;13.35;;;8.50;;
77430;SDS011;66498;48.564;19.272;2023-04-29T12:49:35;10.75;;;8.68;;
77430;SDS011;66498;48.564;19.272;2023-04-29T12:52:02;9.10;;;7.28;;
77430;SDS011;66498;48.564;19.272;2023-04-29T12:54:28;10.60;;;7.15;;
77430;SDS011;66498;48.564;19.272;2023-04-29T12:56:55;11.70;;;8.40;;
77430;SDS011;66498;48.564;19.272;2023-04-29T12:59:21;10.35;;;7.75;;
77430;SDS011;66498;48.564;19.272;2023-04-29T13:01:49;13.55;;;9.57;;
77430;SDS011;66498;48.564;19.272;2023-04-29T13:04:15;12.50;;;7.85;;
77430;SDS011;66498;48.564;19.272;2023-04-29T13:06:42;11.40;;;8.63;;
77430;SDS011;66498;48.564;19.272;2023-04-29T13:09:09;11.05;;;8.18;;
77430;SDS011;66498;48.564;19.272;2023-04-29T13:11:37;11.10;;;7.40;;
77430;SDS011;66498;48.564;19.272;2023-04-29T13:14:05;12.43;;;8.35;;
77430;SDS011;66498;48.564;19.272;2023-04-29T13:16:35;11.50;;;7.78;;
77430;SDS011;66498;48.564;19.272;2023-04-29T13:19:01;11.70;;;7.95;;
77430;SDS011;66498;48.564;19.272;2023-04-29T13:21:27;12.80;;;7.68;;
77430;SDS011;66498;48.564;19.272;2023-04-29T13:23:55;13.45;;;8.25;;
77430;SDS011;66498;48.564;19.272;2023-04-29T13:26:21;12.60;;;8.15;;
77430;SDS011;66498;48.564;19.272;2023-04-29T13:28:49;13.13;;;8.00;;
77430;SDS011;66498;48.564;19.272;2023-04-29T13:31:15;10.77;;;7.38;;
77430;SDS011;66498;48.564;19.272;2023-04-29T13:33:41;12.43;;;8.30;;
77430;SDS011;66498;48.564;19.272;2023-04-29T13:36:08;11.82;;;6.95;;
77430;SDS011;66498;48.564;19.272;2023-04-29T13:38:34;10.15;;;7.35;;
77430;SDS011;66498;48.564;19.272;2023-04-29T13:41:00;10.02;;;6.85;;
77430;SDS011;66498;48.564;19.272;2023-04-29T13:43:26;9.98;;;7.43;;
77430;SDS011;66498;48.564;19.272;2023-04-29T13:45:52;10.63;;;7.70;;
77430;SDS011;66498;48.564;19.272;2023-04-29T13:48:18;9.98;;;7.32;;
77430;SDS011;66498;48.564;19.272;2023-04-29T13:50:44;11.10;;;7.78;;
77430;SDS011;66498;48.564;19.272;2023-04-29T13:53:11;10.77;;;7.10;;
77430;SDS011;66498;48.564;19.272;2023-04-29T13:55:42;10.23;;;6.30;;
77430;SDS011;66498;48.564;19.272;2023-04-29T13:58:09;8.30;;;6.22;;
77430;SDS011;66498;48.564;19.272;2023-04-29T14:00:35;11.55;;;7.25;;
77430;SDS011;66498;48.564;19.272;2023-04-29T14:03:03;10.52;;;7.78;;
77430;SDS011;66498;48.564;19.272;2023-04-29T14:05:31;9.85;;;6.90;;
77430;SDS011;66498;48.564;19.272;2023-04-29T14:08:00;9.52;;;6.70;;
77430;SDS011;66498;48.564;19.272;2023-04-29T14:10:27;10.80;;;7.00;;
77430;SDS011;66498;48.564;19.272;2023-04-29T14:12:52;9.35;;;6.80;;
77430;SDS011;66498;48.564;19.272;2023-04-29T14:15:18;10.35;;;6.68;;
77430;SDS011;66498;48.564;19.272;2023-04-29T14:17:44;10.35;;;6.40;;
77430;SDS011;66498;48.564;19.272;2023-04-29T14:20:09;10.10;;;6.72;;
77430;SDS011;66498;48.564;19.272;2023-04-29T14:22:35;8.50;;;6.65;;
77430;SDS011;66498;48.564;19.272;2023-04-29T14:25:01;9.02;;;7.00;;
77430;SDS011;66498;48.564;19.272;2023-04-29T14:27:26;9.50;;;6.82;;
77430;SDS011;66498;48.564;19.272;2023-04-29T14:29:52;10.50;;;7.10;;
77430;SDS011;66498;48.564;19.272;2023-04-29T14:32:17;13.35;;;7.07;;
77430;SDS011;66498;48.564;19.272;2023-04-29T14:34:43;10.10;;;6.68;;
77430;SDS011;66498;48.564;19.272;2023-04-29T14:37:08;14.13;;;7.00;;
77430;SDS011;66498;48.564;19.272;2023-04-29T14:39:36;9.82;;;7.28;;
77430;SDS011;66498;48.564;19.272;2023-04-29T14:42:02;10.98;;;7.40;;
77430;SDS011;66498;48.564;19.272;2023-04-29T14:44:30;12.45;;;7.55;;
77430;SDS011;66498;48.564;19.272;2023-04-29T14:46:55;10.15;;;7.40;;
77430;SDS011;66498;48.564;19.272;2023-04-29T14:49:21;11.15;;;7.40;;
77430;SDS011;66498;48.564;19.272;2023-04-29T14:51:47;10.15;;;8.00;;
77430;SDS011;66498;48.564;19.272;2023-04-29T14:54:13;12.68;;;7.82;;
77430;SDS011;66498;48.564;19.272;2023-04-29T14:56:38;11.38;;;7.78;;
77430;SDS011;66498;48.564;19.272;2023-04-29T14:59:04;11.25;;;8.80;;